sensor_id;sensor_type;location;lat;lon;timestamp;P1;durP1;ratioP1;P2;durP2;ratioP2
25581;SDS011;13462;50.764;4.332;2022-09-16T00:04:19;7.38;;;2.70;;
25581;SDS011;13462;50.764;4.332;2022-09-16T00:29:30;4.38;;;2.42;;
25581;SDS011;13462;50.764;4.332;2022-09-16T00:41:30;5.43;;;2.47;;
25581;SDS011;13462;50.764;4.332;2022-09-16T00:44:04;6.97;;;2.63;;
25581;SDS011;13462;50.764;4.332;2022-09-16T00:49:45;9.82;;;2.75;;
25581;SDS011;13462;50.764;4.332;2022-09-16T00:52:30;10.57;;;2.97;;
25581;SDS011;13462;50.764;4.332;2022-09-16T00:55:53;4.65;;;2.40;;
25581;SDS011;13462;50.764;4.332;2022-09-16T00:58:18;7.57;;;2.47;;
25581;SDS011;13462;50.764;4.332;2022-09-16T01:00:52;6.30;;;2.58;;
25581;SDS011;13462;50.764;4.332;2022-09-16T01:03:59;5.07;;;2.15;;
25581;SDS011;13462;50.764;4.332;2022-09-16T01:09:20;11.88;;;2.25;;
25581;SDS011;13462;50.764;4.332;2022-09-16T01:11:58;8.32;;;2.70;;
25581;SDS011;13462;50.764;4.332;2022-09-16T01:14:36;8.63;;;2.20;;
25581;SDS011;13462;50.764;4.332;2022-09-16T01:20:34;9.02;;;2.97;;
25581;SDS011;13462;50.764;4.332;2022-09-16T01:26:21;5.97;;;2.50;;
25581;SDS011;13462;50.764;4.332;2022-09-16T01:51:32;5.80;;;2.30;;
25581;SDS011;13462;50.764;4.332;2022-09-16T01:54:19;11.07;;;2.67;;
25581;SDS011;13462;50.764;4.332;2022-09-16T02:11:41;10.73;;;2.65;;
25581;SDS011;13462;50.764;4.332;2022-09-16T02:19:42;8.82;;;2.75;;
25581;SDS011;13462;50.764;4.332;2022-09-16T02:22:28;9.63;;;2.03;;
25581;SDS011;13462;50.764;4.332;2022-09-16T02:31:56;8.00;;;2.70;;
25581;SDS011;13462;50.764;4.332;2022-09-16T02:34:28;8.03;;;2.57;;
25581;SDS011;13462;50.764;4.332;2022-09-16T02:37:28;6.15;;;2.42;;
25581;SDS011;13462;50.764;4.332;2022-09-16T02:50:37;5.50;;;2.33;;
25581;SDS011;13462;50.764;4.332;2022-09-16T02:56:46;7.25;;;2.30;;
25581;SDS011;13462;50.764;4.332;2022-09-16T02:59:22;6.18;;;2.25;;
25581;SDS011;13462;50.764;4.332;2022-09-16T03:02:11;8.50;;;2.63;;
25581;SDS011;13462;50.764;4.332;2022-09-16T03:04:37;6.53;;;2.72;;
25581;SDS011;13462;50.764;4.332;2022-09-16T03:07:06;9.20;;;2.60;;
25581;SDS011;13462;50.764;4.332;2022-09-16T03:09:48;7.10;;;2.55;;
25581;SDS011;13462;50.764;4.332;2022-09-16T03:28:22;6.97;;;2.63;;
25581;SDS011;13462;50.764;4.332;2022-09-16T03:33:52;6.80;;;2.45;;
25581;SDS011;13462;50.764;4.332;2022-09-16T03:36:52;3.88;;;2.33;;
25581;SDS011;13462;50.764;4.332;2022-09-16T03:43:58;3.70;;;2.08;;
25581;SDS011;13462;50.764;4.332;2022-09-16T03:46:24;5.05;;;2.60;;
25581;SDS011;13462;50.764;4.332;2022-09-16T03:49:10;6.65;;;2.95;;
25581;SDS011;13462;50.764;4.332;2022-09-16T03:52:09;4.95;;;2.20;;
25581;SDS011;13462;50.764;4.332;2022-09-16T03:57:31;5.90;;;2.70;;
25581;SDS011;13462;50.764;4.332;2022-09-16T04:05:34;6.57;;;2.42;;
25581;SDS011;13462;50.764;4.332;2022-09-16T04:08:03;4.45;;;2.25;;
25581;SDS011;13462;50.764;4.332;2022-09-16T04:10:32;10.30;;;2.58;;
25581;SDS011;13462;50.764;4.332;2022-09-16T04:12:59;9.15;;;2.72;;
25581;SDS011;13462;50.764;4.332;2022-09-16T04:18:14;7.45;;;2.50;;
25581;SDS011;13462;50.764;4.332;2022-09-16T04:21:29;6.40;;;2.50;;
25581;SDS011;13462;50.764;4.332;2022-09-16T04:24:04;9.80;;;2.40;;
25581;SDS011;13462;50.764;4.332;2022-09-16T04:26:50;8.10;;;2.78;;
25581;SDS011;13462;50.764;4.332;2022-09-16T04:30:02;3.85;;;2.22;;
25581;SDS011;13462;50.764;4.332;2022-09-16T04:36:25;9.25;;;2.67;;
25581;SDS011;13462;50.764;4.332;2022-09-16T04:39:03;11.65;;;2.35;;
25581;SDS011;13462;50.764;4.332;2022-09-16T04:41:30;7.15;;;2.40;;
25581;SDS011;13462;50.764;4.332;2022-09-16T04:46:34;9.90;;;2.75;;
25581;SDS011;13462;50.764;4.332;2022-09-16T04:49:03;11.48;;;2.75;;
25581;SDS011;13462;50.764;4.332;2022-09-16T04:51:29;8.25;;;2.40;;
25581;SDS011;13462;50.764;4.332;2022-09-16T04:54:15;6.00;;;2.60;;
25581;SDS011;13462;50.764;4.332;2022-09-16T04:56:41;7.82;;;2.30;;
25581;SDS011;13462;50.764;4.332;2022-09-16T04:59:12;7.20;;;2.35;;
25581;SDS011;13462;50.764;4.332;2022-09-16T05:01:47;4.45;;;2.33;;
25581;SDS011;13462;50.764;4.332;2022-09-16T05:04:33;8.40;;;2.67;;
25581;SDS011;13462;50.764;4.332;2022-09-16T05:07:03;5.35;;;2.20;;
25581;SDS011;13462;50.764;4.332;2022-09-16T05:09:34;9.02;;;2.55;;
25581;SDS011;13462;50.764;4.332;2022-09-16T05:12:01;9.15;;;2.55;;
25581;SDS011;13462;50.764;4.332;2022-09-16T05:14:27;6.55;;;2.13;;
25581;SDS011;13462;50.764;4.332;2022-09-16T05:16:53;7.15;;;2.35;;
25581;SDS011;13462;50.764;4.332;2022-09-16T05:22:14;9.20;;;2.35;;
25581;SDS011;13462;50.764;4.332;2022-09-16T05:24:43;7.53;;;2.78;;
25581;SDS011;13462;50.764;4.332;2022-09-16T05:27:11;6.78;;;2.08;;
25581;SDS011;13462;50.764;4.332;2022-09-16T05:29:39;9.73;;;2.40;;
25581;SDS011;13462;50.764;4.332;2022-09-16T05:32:05;6.35;;;2.40;;
25581;SDS011;13462;50.764;4.332;2022-09-16T05:34:32;10.40;;;2.45;;
25581;SDS011;13462;50.764;4.332;2022-09-16T05:39:35;8.40;;;2.33;;
25581;SDS011;13462;50.764;4.332;2022-09-16T05:49:09;8.20;;;1.98;;
25581;SDS011;13462;50.764;4.332;2022-09-16T05:51:49;5.30;;;2.38;;
25581;SDS011;13462;50.764;4.332;2022-09-16T05:54:16;6.80;;;2.75;;
25581;SDS011;13462;50.764;4.332;2022-09-16T05:56:42;8.43;;;2.15;;
25581;SDS011;13462;50.764;4.332;2022-09-16T05:59:09;7.13;;;2.60;;
25581;SDS011;13462;50.764;4.332;2022-09-16T06:01:36;10.05;;;2.50;;
25581;SDS011;13462;50.764;4.332;2022-09-16T06:04:03;7.65;;;2.40;;
25581;SDS011;13462;50.764;4.332;2022-09-16T06:06:31;6.32;;;2.17;;
25581;SDS011;13462;50.764;4.332;2022-09-16T06:09:18;7.03;;;2.53;;
25581;SDS011;13462;50.764;4.332;2022-09-16T06:12:33;4.82;;;1.95;;
25581;SDS011;13462;50.764;4.332;2022-09-16T06:14:59;5.05;;;2.63;;
25581;SDS011;13462;50.764;4.332;2022-09-16T06:17:25;4.97;;;2.63;;
25581;SDS011;13462;50.764;4.332;2022-09-16T06:20:05;5.57;;;1.92;;
25581;SDS011;13462;50.764;4.332;2022-09-16T06:22:41;6.10;;;2.05;;
25581;SDS011;13462;50.764;4.332;2022-09-16T06:28:33;3.97;;;1.83;;
25581;SDS011;13462;50.764;4.332;2022-09-16T06:31:03;6.45;;;2.53;;
25581;SDS011;13462;50.764;4.332;2022-09-16T06:33:46;6.75;;;2.00;;
25581;SDS011;13462;50.764;4.332;2022-09-16T06:36:34;4.40;;;2.30;;
25581;SDS011;13462;50.764;4.332;2022-09-16T06:39:13;8.57;;;2.42;;
25581;SDS011;13462;50.764;4.332;2022-09-16T06:41:50;4.95;;;2.10;;
25581;SDS011;13462;50.764;4.332;2022-09-16T06:57:56;7.53;;;2.40;;
25581;SDS011;13462;50.764;4.332;2022-09-16T07:00:22;6.72;;;2.55;;
25581;SDS011;13462;50.764;4.332;2022-09-16T07:16:48;4.57;;;2.47;;
25581;SDS011;13462;50.764;4.332;2022-09-16T07:26:29;7.03;;;2.22;;
25581;SDS011;13462;50.764;4.332;2022-09-16T07:36:00;8.98;;;2.67;;
25581;SDS011;13462;50.764;4.332;2022-09-16T07:38:28;6.25;;;2.10;;
25581;SDS011;13462;50.764;4.332;2022-09-16T07:41:02;6.53;;;2.70;;
25581;SDS011;13462;50.764;4.332;2022-09-16T07:43:55;13.00;;;2.75;;
25581;SDS011;13462;50.764;4.332;2022-09-16T07:46:44;6.85;;;2.35;;
25581;SDS011;13462;50.764;4.332;2022-09-16T07:58:41;7.55;;;1.83;;
25581;SDS011;13462;50.764;4.332;2022-09-16T08:01:08;6.65;;;1.75;;
25581;SDS011;13462;50.764;4.332;2022-09-16T08:06:39;4.88;;;1.45;;
25581;SDS011;13462;50.764;4.332;2022-09-16T08:11:55;4.60;;;1.45;;
25581;SDS011;13462;50.764;4.332;2022-09-16T08:14:26;5.13;;;1.20;;
25581;SDS011;13462;50.764;4.332;2022-09-16T08:17:01;4.72;;;1.45;;
25581;SDS011;13462;50.764;4.332;2022-09-16T08:19:30;2.95;;;1.10;;
25581;SDS011;13462;50.764;4.332;2022-09-16T08:24:34;3.72;;;1.00;;
25581;SDS011;13462;50.764;4.332;2022-09-16T08:30:04;3.20;;;1.55;;
25581;SDS011;13462;50.764;4.332;2022-09-16T08:52:26;5.97;;;1.73;;
25581;SDS011;13462;50.764;4.332;2022-09-16T08:55:39;6.45;;;2.10;;
25581;SDS011;13462;50.764;4.332;2022-09-16T08:57:51;3.72;;;1.08;;
25581;SDS011;13462;50.764;4.332;2022-09-16T09:00:22;8.77;;;1.50;;
25581;SDS011;13462;50.764;4.332;2022-09-16T09:02:55;7.60;;;1.25;;
25581;SDS011;13462;50.764;4.332;2022-09-16T09:18:07;4.85;;;1.73;;
25581;SDS011;13462;50.764;4.332;2022-09-16T09:20:55;6.03;;;1.50;;
25581;SDS011;13462;50.764;4.332;2022-09-16T09:46:12;2.17;;;0.80;;
25581;SDS011;13462;50.764;4.332;2022-09-16T09:49:02;2.53;;;0.70;;
25581;SDS011;13462;50.764;4.332;2022-09-16T09:52:42;1.40;;;0.70;;
25581;SDS011;13462;50.764;4.332;2022-09-16T09:55:33;2.83;;;1.05;;
25581;SDS011;13462;50.764;4.332;2022-09-16T09:58:04;2.47;;;0.90;;
25581;SDS011;13462;50.764;4.332;2022-09-16T10:00:52;4.70;;;1.33;;
25581;SDS011;13462;50.764;4.332;2022-09-16T10:10:18;3.58;;;1.38;;
25581;SDS011;13462;50.764;4.332;2022-09-16T10:12:48;2.63;;;1.00;;
25581;SDS011;13462;50.764;4.332;2022-09-16T10:15:32;3.40;;;1.20;;
25581;SDS011;13462;50.764;4.332;2022-09-16T10:17:59;4.22;;;1.20;;
25581;SDS011;13462;50.764;4.332;2022-09-16T10:20:34;2.53;;;1.30;;
25581;SDS011;13462;50.764;4.332;2022-09-16T10:23:19;2.58;;;1.50;;
25581;SDS011;13462;50.764;4.332;2022-09-16T10:25:47;7.93;;;1.50;;
25581;SDS011;13462;50.764;4.332;2022-09-16T10:28:25;3.05;;;1.23;;
25581;SDS011;13462;50.764;4.332;2022-09-16T10:30:52;6.38;;;1.35;;
25581;SDS011;13462;50.764;4.332;2022-09-16T10:38:52;3.55;;;1.00;;
25581;SDS011;13462;50.764;4.332;2022-09-16T10:41:42;3.55;;;1.08;;
25581;SDS011;13462;50.764;4.332;2022-09-16T10:44:14;4.43;;;1.10;;
25581;SDS011;13462;50.764;4.332;2022-09-16T10:46:53;4.85;;;1.00;;
25581;SDS011;13462;50.764;4.332;2022-09-16T11:14:44;3.30;;;0.60;;
25581;SDS011;13462;50.764;4.332;2022-09-16T11:30:24;4.85;;;1.00;;
25581;SDS011;13462;50.764;4.332;2022-09-16T11:39:39;9.05;;;1.20;;
25581;SDS011;13462;50.764;4.332;2022-09-16T11:42:41;4.38;;;1.02;;
25581;SDS011;13462;50.764;4.332;2022-09-16T11:48:40;2.88;;;1.10;;
25581;SDS011;13462;50.764;4.332;2022-09-16T11:58:02;3.63;;;1.05;;
25581;SDS011;13462;50.764;4.332;2022-09-16T12:01:55;4.80;;;1.00;;
25581;SDS011;13462;50.764;4.332;2022-09-16T12:14:12;3.25;;;1.40;;
25581;SDS011;13462;50.764;4.332;2022-09-16T12:20:29;1.85;;;0.73;;
25581;SDS011;13462;50.764;4.332;2022-09-16T12:23:19;1.83;;;1.00;;
25581;SDS011;13462;50.764;4.332;2022-09-16T12:26:29;3.00;;;1.20;;
25581;SDS011;13462;50.764;4.332;2022-09-16T12:35:37;3.30;;;1.23;;
25581;SDS011;13462;50.764;4.332;2022-09-16T12:38:29;2.40;;;1.15;;
25581;SDS011;13462;50.764;4.332;2022-09-16T12:53:30;2.63;;;1.00;;
25581;SDS011;13462;50.764;4.332;2022-09-16T13:02:06;2.15;;;0.93;;
25581;SDS011;13462;50.764;4.332;2022-09-16T13:04:43;5.90;;;1.63;;
25581;SDS011;13462;50.764;4.332;2022-09-16T13:07:26;2.42;;;1.00;;
25581;SDS011;13462;50.764;4.332;2022-09-16T13:10:05;4.75;;;1.35;;
25581;SDS011;13462;50.764;4.332;2022-09-16T13:12:59;6.65;;;1.60;;
25581;SDS011;13462;50.764;4.332;2022-09-16T13:21:28;5.85;;;1.45;;
25581;SDS011;13462;50.764;4.332;2022-09-16T13:27:29;7.22;;;1.42;;
25581;SDS011;13462;50.764;4.332;2022-09-16T13:41:04;4.30;;;1.23;;
25581;SDS011;13462;50.764;4.332;2022-09-16T13:46:34;3.70;;;1.60;;
25581;SDS011;13462;50.764;4.332;2022-09-16T13:51:52;4.93;;;1.38;;
25581;SDS011;13462;50.764;4.332;2022-09-16T14:00:36;5.97;;;1.23;;
25581;SDS011;13462;50.764;4.332;2022-09-16T14:03:49;4.45;;;1.08;;
25581;SDS011;13462;50.764;4.332;2022-09-16T14:06:32;3.90;;;1.15;;
25581;SDS011;13462;50.764;4.332;2022-09-16T14:26:37;2.97;;;0.80;;
25581;SDS011;13462;50.764;4.332;2022-09-16T14:29:16;2.35;;;1.10;;
25581;SDS011;13462;50.764;4.332;2022-09-16T14:38:18;1.25;;;0.80;;
25581;SDS011;13462;50.764;4.332;2022-09-16T14:59:35;3.92;;;0.90;;
25581;SDS011;13462;50.764;4.332;2022-09-16T15:02:14;2.15;;;0.90;;
25581;SDS011;13462;50.764;4.332;2022-09-16T15:04:52;4.88;;;1.38;;
25581;SDS011;13462;50.764;4.332;2022-09-16T15:07:42;3.20;;;1.25;;
25581;SDS011;13462;50.764;4.332;2022-09-16T15:10:21;4.88;;;2.55;;
25581;SDS011;13462;50.764;4.332;2022-09-16T15:12:57;6.72;;;2.90;;
25581;SDS011;13462;50.764;4.332;2022-09-16T15:15:31;6.57;;;2.92;;
25581;SDS011;13462;50.764;4.332;2022-09-16T15:18:09;4.47;;;1.67;;
25581;SDS011;13462;50.764;4.332;2022-09-16T15:31:36;6.28;;;3.15;;
25581;SDS011;13462;50.764;4.332;2022-09-16T15:34:44;3.67;;;2.25;;
25581;SDS011;13462;50.764;4.332;2022-09-16T15:37:32;4.53;;;2.80;;
25581;SDS011;13462;50.764;4.332;2022-09-16T15:40:19;9.73;;;4.95;;
25581;SDS011;13462;50.764;4.332;2022-09-16T15:42:48;5.18;;;3.88;;
25581;SDS011;13462;50.764;4.332;2022-09-16T15:49:23;5.82;;;3.47;;
25581;SDS011;13462;50.764;4.332;2022-09-16T15:54:32;9.95;;;6.22;;
25581;SDS011;13462;50.764;4.332;2022-09-16T15:57:32;8.80;;;5.85;;
25581;SDS011;13462;50.764;4.332;2022-09-16T16:00:16;5.55;;;2.20;;
25581;SDS011;13462;50.764;4.332;2022-09-16T16:02:52;3.53;;;1.83;;
25581;SDS011;13462;50.764;4.332;2022-09-16T16:05:48;3.17;;;1.63;;
25581;SDS011;13462;50.764;4.332;2022-09-16T16:08:35;2.58;;;1.45;;
25581;SDS011;13462;50.764;4.332;2022-09-16T16:11:16;4.72;;;2.20;;
25581;SDS011;13462;50.764;4.332;2022-09-16T16:20:03;4.45;;;1.40;;
25581;SDS011;13462;50.764;4.332;2022-09-16T16:22:36;5.75;;;1.90;;
25581;SDS011;13462;50.764;4.332;2022-09-16T16:25:03;2.33;;;1.20;;
25581;SDS011;13462;50.764;4.332;2022-09-16T16:27:32;3.65;;;1.38;;
25581;SDS011;13462;50.764;4.332;2022-09-16T16:30:12;3.13;;;1.35;;
25581;SDS011;13462;50.764;4.332;2022-09-16T16:32:38;6.40;;;3.17;;
25581;SDS011;13462;50.764;4.332;2022-09-16T16:35:04;8.13;;;2.17;;
25581;SDS011;13462;50.764;4.332;2022-09-16T16:37:41;4.45;;;1.67;;
25581;SDS011;13462;50.764;4.332;2022-09-16T16:40:47;3.42;;;0.90;;
25581;SDS011;13462;50.764;4.332;2022-09-16T16:43:14;4.22;;;1.08;;
25581;SDS011;13462;50.764;4.332;2022-09-16T16:45:40;5.82;;;1.33;;
25581;SDS011;13462;50.764;4.332;2022-09-16T17:01:16;3.45;;;2.22;;
25581;SDS011;13462;50.764;4.332;2022-09-16T17:03:56;5.07;;;1.58;;
25581;SDS011;13462;50.764;4.332;2022-09-16T17:06:52;6.88;;;2.42;;
25581;SDS011;13462;50.764;4.332;2022-09-16T17:09:21;3.30;;;1.73;;
25581;SDS011;13462;50.764;4.332;2022-09-16T17:14:54;8.10;;;2.33;;
25581;SDS011;13462;50.764;4.332;2022-09-16T17:17:30;3.78;;;1.73;;
25581;SDS011;13462;50.764;4.332;2022-09-16T17:19:59;4.40;;;1.33;;
25581;SDS011;13462;50.764;4.332;2022-09-16T17:22:37;2.80;;;1.20;;
25581;SDS011;13462;50.764;4.332;2022-09-16T17:35:43;8.30;;;1.70;;
25581;SDS011;13462;50.764;4.332;2022-09-16T17:41:35;3.88;;;1.70;;
25581;SDS011;13462;50.764;4.332;2022-09-16T17:44:16;5.47;;;3.08;;
25581;SDS011;13462;50.764;4.332;2022-09-16T17:47:03;5.18;;;2.55;;
25581;SDS011;13462;50.764;4.332;2022-09-16T17:49:32;7.88;;;2.67;;
25581;SDS011;13462;50.764;4.332;2022-09-16T17:52:18;9.65;;;5.75;;
25581;SDS011;13462;50.764;4.332;2022-09-16T17:54:46;6.85;;;3.17;;
25581;SDS011;13462;50.764;4.332;2022-09-16T17:57:22;6.45;;;2.40;;
25581;SDS011;13462;50.764;4.332;2022-09-16T17:59:58;3.92;;;1.60;;
25581;SDS011;13462;50.764;4.332;2022-09-16T18:02:37;2.90;;;1.98;;
25581;SDS011;13462;50.764;4.332;2022-09-16T18:08:41;6.13;;;2.63;;
25581;SDS011;13462;50.764;4.332;2022-09-16T18:14:52;4.85;;;2.05;;
25581;SDS011;13462;50.764;4.332;2022-09-16T18:17:24;5.00;;;2.00;;
25581;SDS011;13462;50.764;4.332;2022-09-16T18:37:19;4.93;;;1.65;;
25581;SDS011;13462;50.764;4.332;2022-09-16T18:40:01;5.18;;;2.10;;
25581;SDS011;13462;50.764;4.332;2022-09-16T18:42:54;4.15;;;2.42;;
25581;SDS011;13462;50.764;4.332;2022-09-16T18:45:20;5.55;;;2.95;;
25581;SDS011;13462;50.764;4.332;2022-09-16T18:48:09;6.07;;;2.28;;
25581;SDS011;13462;50.764;4.332;2022-09-16T18:50:39;4.60;;;2.22;;
25581;SDS011;13462;50.764;4.332;2022-09-16T18:53:17;7.40;;;2.00;;
25581;SDS011;13462;50.764;4.332;2022-09-16T18:59:07;4.63;;;1.52;;
25581;SDS011;13462;50.764;4.332;2022-09-16T19:01:41;5.28;;;1.98;;
25581;SDS011;13462;50.764;4.332;2022-09-16T19:07:57;8.43;;;2.92;;
25581;SDS011;13462;50.764;4.332;2022-09-16T19:10:23;4.82;;;2.22;;
25581;SDS011;13462;50.764;4.332;2022-09-16T19:19:04;8.15;;;2.75;;
25581;SDS011;13462;50.764;4.332;2022-09-16T19:21:32;8.40;;;2.35;;
25581;SDS011;13462;50.764;4.332;2022-09-16T19:24:25;7.05;;;2.10;;
25581;SDS011;13462;50.764;4.332;2022-09-16T19:26:58;7.63;;;2.50;;
25581;SDS011;13462;50.764;4.332;2022-09-16T19:32:06;4.82;;;2.90;;
25581;SDS011;13462;50.764;4.332;2022-09-16T19:34:38;7.47;;;2.38;;
25581;SDS011;13462;50.764;4.332;2022-09-16T19:37:04;10.20;;;2.63;;
25581;SDS011;13462;50.764;4.332;2022-09-16T19:39:34;4.90;;;2.08;;
25581;SDS011;13462;50.764;4.332;2022-09-16T19:52:00;7.35;;;2.65;;
25581;SDS011;13462;50.764;4.332;2022-09-16T19:54:25;10.60;;;2.28;;
25581;SDS011;13462;50.764;4.332;2022-09-16T19:56:52;8.65;;;1.80;;
25581;SDS011;13462;50.764;4.332;2022-09-16T19:59:20;4.50;;;1.60;;
25581;SDS011;13462;50.764;4.332;2022-09-16T20:01:50;3.22;;;1.30;;
25581;SDS011;13462;50.764;4.332;2022-09-16T20:04:19;5.60;;;2.00;;
25581;SDS011;13462;50.764;4.332;2022-09-16T20:07:06;4.53;;;1.70;;
25581;SDS011;13462;50.764;4.332;2022-09-16T20:10:01;4.90;;;1.73;;
25581;SDS011;13462;50.764;4.332;2022-09-16T20:19:19;7.90;;;1.48;;
25581;SDS011;13462;50.764;4.332;2022-09-16T20:21:45;3.35;;;1.25;;
25581;SDS011;13462;50.764;4.332;2022-09-16T20:24:56;6.15;;;1.77;;
25581;SDS011;13462;50.764;4.332;2022-09-16T20:27:45;4.22;;;1.35;;
25581;SDS011;13462;50.764;4.332;2022-09-16T20:33:29;5.18;;;1.83;;
25581;SDS011;13462;50.764;4.332;2022-09-16T20:36:08;6.18;;;1.75;;
25581;SDS011;13462;50.764;4.332;2022-09-16T20:41:47;5.75;;;1.50;;
25581;SDS011;13462;50.764;4.332;2022-09-16T20:44:16;5.32;;;1.92;;
25581;SDS011;13462;50.764;4.332;2022-09-16T20:46:43;5.53;;;1.60;;
25581;SDS011;13462;50.764;4.332;2022-09-16T20:49:14;3.55;;;1.60;;
25581;SDS011;13462;50.764;4.332;2022-09-16T20:51:46;6.50;;;1.80;;
25581;SDS011;13462;50.764;4.332;2022-09-16T20:54:24;5.55;;;1.75;;
25581;SDS011;13462;50.764;4.332;2022-09-16T20:57:09;10.57;;;2.80;;
25581;SDS011;13462;50.764;4.332;2022-09-16T20:59:37;5.00;;;2.25;;
25581;SDS011;13462;50.764;4.332;2022-09-16T21:02:04;3.60;;;2.22;;
25581;SDS011;13462;50.764;4.332;2022-09-16T21:04:32;7.55;;;2.00;;
25581;SDS011;13462;50.764;4.332;2022-09-16T21:09:49;7.13;;;2.00;;
25581;SDS011;13462;50.764;4.332;2022-09-16T21:12:21;9.98;;;2.22;;
25581;SDS011;13462;50.764;4.332;2022-09-16T21:14:47;3.30;;;1.77;;
25581;SDS011;13462;50.764;4.332;2022-09-16T21:17:13;6.65;;;1.77;;
25581;SDS011;13462;50.764;4.332;2022-09-16T21:19:43;11.20;;;2.50;;
25581;SDS011;13462;50.764;4.332;2022-09-16T21:22:34;8.82;;;1.77;;
25581;SDS011;13462;50.764;4.332;2022-09-16T21:39:13;9.10;;;2.00;;
25581;SDS011;13462;50.764;4.332;2022-09-16T21:49:09;9.25;;;1.88;;
25581;SDS011;13462;50.764;4.332;2022-09-16T21:51:56;16.10;;;1.92;;
25581;SDS011;13462;50.764;4.332;2022-09-16T21:54:33;9.35;;;1.95;;
25581;SDS011;13462;50.764;4.332;2022-09-16T21:57:09;7.88;;;2.03;;
25581;SDS011;13462;50.764;4.332;2022-09-16T21:59:50;10.00;;;1.90;;
25581;SDS011;13462;50.764;4.332;2022-09-16T22:02:37;6.10;;;1.83;;
25581;SDS011;13462;50.764;4.332;2022-09-16T22:05:03;5.85;;;1.83;;
25581;SDS011;13462;50.764;4.332;2022-09-16T22:14:26;11.95;;;2.15;;
25581;SDS011;13462;50.764;4.332;2022-09-16T22:19:57;10.63;;;1.60;;
25581;SDS011;13462;50.764;4.332;2022-09-16T22:22:23;9.32;;;2.08;;
25581;SDS011;13462;50.764;4.332;2022-09-16T22:24:48;8.60;;;1.67;;
25581;SDS011;13462;50.764;4.332;2022-09-16T22:27:17;6.55;;;1.40;;
25581;SDS011;13462;50.764;4.332;2022-09-16T22:35:40;8.73;;;1.92;;
25581;SDS011;13462;50.764;4.332;2022-09-16T22:38:06;6.07;;;1.60;;
25581;SDS011;13462;50.764;4.332;2022-09-16T22:40:45;8.88;;;2.15;;
25581;SDS011;13462;50.764;4.332;2022-09-16T22:43:14;4.75;;;1.60;;
25581;SDS011;13462;50.764;4.332;2022-09-16T22:46:01;6.85;;;2.25;;
25581;SDS011;13462;50.764;4.332;2022-09-16T22:48:55;6.78;;;1.70;;
25581;SDS011;13462;50.764;4.332;2022-09-16T22:51:24;9.07;;;2.30;;
25581;SDS011;13462;50.764;4.332;2022-09-16T22:53:51;5.32;;;1.90;;
25581;SDS011;13462;50.764;4.332;2022-09-16T22:56:25;4.82;;;1.50;;
25581;SDS011;13462;50.764;4.332;2022-09-16T22:59:03;8.73;;;2.15;;
25581;SDS011;13462;50.764;4.332;2022-09-16T23:01:37;7.45;;;2.20;;
25581;SDS011;13462;50.764;4.332;2022-09-16T23:04:05;10.07;;;1.90;;
25581;SDS011;13462;50.764;4.332;2022-09-16T23:06:38;9.27;;;2.05;;
25581;SDS011;13462;50.764;4.332;2022-09-16T23:09:04;9.93;;;2.38;;
25581;SDS011;13462;50.764;4.332;2022-09-16T23:11:32;7.45;;;1.75;;
25581;SDS011;13462;50.764;4.332;2022-09-16T23:13:59;7.32;;;1.95;;
25581;SDS011;13462;50.764;4.332;2022-09-16T23:16:28;7.78;;;2.28;;
25581;SDS011;13462;50.764;4.332;2022-09-16T23:31:49;9.82;;;2.45;;
25581;SDS011;13462;50.764;4.332;2022-09-16T23:34:21;6.35;;;2.20;;
25581;SDS011;13462;50.764;4.332;2022-09-16T23:37:07;10.85;;;2.90;;
25581;SDS011;13462;50.764;4.332;2022-09-16T23:39:43;8.10;;;2.13;;
25581;SDS011;13462;50.764;4.332;2022-09-16T23:42:18;4.68;;;1.92;;
25581;SDS011;13462;50.764;4.332;2022-09-16T23:44:53;10.20;;;2.17;;
25581;SDS011;13462;50.764;4.332;2022-09-16T23:47:21;7.50;;;2.13;;
25581;SDS011;13462;50.764;4.332;2022-09-16T23:52:52;9.27;;;2.28;;
